sensor_id;sensor_type;location;lat;lon;timestamp;P1;durP1;ratioP1;P2;durP2;ratioP2
75854;SDS011;64502;59.976;30.316;2022-12-10T00:01:29;24.45;;;8.27;;
75854;SDS011;64502;59.976;30.316;2022-12-10T00:03:55;21.15;;;8.38;;
75854;SDS011;64502;59.976;30.316;2022-12-10T00:06:22;19.83;;;7.57;;
75854;SDS011;64502;59.976;30.316;2022-12-10T00:08:50;22.33;;;8.15;;
75854;SDS011;64502;59.976;30.316;2022-12-10T00:11:16;18.40;;;7.20;;
75854;SDS011;64502;59.976;30.316;2022-12-10T00:13:43;20.00;;;8.00;;
75854;SDS011;64502;59.976;30.316;2022-12-10T00:16:10;20.42;;;7.90;;
75854;SDS011;64502;59.976;30.316;2022-12-10T00:18:38;20.85;;;7.43;;
75854;SDS011;64502;59.976;30.316;2022-12-10T00:21:05;20.80;;;7.55;;
75854;SDS011;64502;59.976;30.316;2022-12-10T00:23:31;18.83;;;7.63;;
75854;SDS011;64502;59.976;30.316;2022-12-10T00:26:16;20.83;;;7.20;;
75854;SDS011;64502;59.976;30.316;2022-12-10T00:28:44;16.48;;;6.50;;
75854;SDS011;64502;59.976;30.316;2022-12-10T00:31:14;16.55;;;6.45;;
75854;SDS011;64502;59.976;30.316;2022-12-10T00:33:43;16.95;;;7.28;;
75854;SDS011;64502;59.976;30.316;2022-12-10T00:38:42;14.93;;;5.82;;
75854;SDS011;64502;59.976;30.316;2022-12-10T00:41:09;16.08;;;6.20;;
75854;SDS011;64502;59.976;30.316;2022-12-10T00:43:36;15.02;;;5.85;;
75854;SDS011;64502;59.976;30.316;2022-12-10T00:46:01;12.25;;;5.45;;
75854;SDS011;64502;59.976;30.316;2022-12-10T00:48:27;13.18;;;5.57;;
75854;SDS011;64502;59.976;30.316;2022-12-10T00:50:54;11.23;;;4.55;;
75854;SDS011;64502;59.976;30.316;2022-12-10T00:53:31;14.15;;;5.90;;
75854;SDS011;64502;59.976;30.316;2022-12-10T00:55:58;15.93;;;5.50;;
75854;SDS011;64502;59.976;30.316;2022-12-10T00:58:28;13.93;;;6.80;;
75854;SDS011;64502;59.976;30.316;2022-12-10T01:01:05;8.07;;;4.00;;
75854;SDS011;64502;59.976;30.316;2022-12-10T01:03:40;12.52;;;5.05;;
75854;SDS011;64502;59.976;30.316;2022-12-10T01:06:24;9.23;;;3.53;;
75854;SDS011;64502;59.976;30.316;2022-12-10T01:09:03;12.98;;;3.58;;
75854;SDS011;64502;59.976;30.316;2022-12-10T01:11:31;12.07;;;5.13;;
75854;SDS011;64502;59.976;30.316;2022-12-10T01:13:59;11.40;;;4.57;;
75854;SDS011;64502;59.976;30.316;2022-12-10T01:16:25;13.65;;;5.18;;
75854;SDS011;64502;59.976;30.316;2022-12-10T01:18:54;10.52;;;4.75;;
75854;SDS011;64502;59.976;30.316;2022-12-10T01:21:22;11.48;;;4.38;;
75854;SDS011;64502;59.976;30.316;2022-12-10T01:23:49;12.55;;;4.93;;
75854;SDS011;64502;59.976;30.316;2022-12-10T01:26:17;10.88;;;5.43;;
75854;SDS011;64502;59.976;30.316;2022-12-10T01:28:45;10.30;;;4.80;;
75854;SDS011;64502;59.976;30.316;2022-12-10T01:31:12;11.82;;;4.68;;
75854;SDS011;64502;59.976;30.316;2022-12-10T01:33:58;9.55;;;4.60;;
75854;SDS011;64502;59.976;30.316;2022-12-10T01:36:28;9.95;;;4.30;;
75854;SDS011;64502;59.976;30.316;2022-12-10T01:38:56;13.15;;;5.95;;
75854;SDS011;64502;59.976;30.316;2022-12-10T01:41:24;7.82;;;3.97;;
75854;SDS011;64502;59.976;30.316;2022-12-10T01:46:28;7.50;;;4.05;;
75854;SDS011;64502;59.976;30.316;2022-12-10T01:48:59;12.45;;;4.35;;
75854;SDS011;64502;59.976;30.316;2022-12-10T01:51:27;11.70;;;4.50;;
75854;SDS011;64502;59.976;30.316;2022-12-10T01:53:54;8.07;;;3.17;;
75854;SDS011;64502;59.976;30.316;2022-12-10T01:56:20;9.88;;;4.65;;
75854;SDS011;64502;59.976;30.316;2022-12-10T01:58:47;8.18;;;3.55;;
75854;SDS011;64502;59.976;30.316;2022-12-10T02:01:20;8.63;;;4.00;;
75854;SDS011;64502;59.976;30.316;2022-12-10T02:03:58;9.88;;;4.00;;
75854;SDS011;64502;59.976;30.316;2022-12-10T02:09:58;8.18;;;3.58;;
75854;SDS011;64502;59.976;30.316;2022-12-10T02:12:35;9.50;;;4.28;;
75854;SDS011;64502;59.976;30.316;2022-12-10T02:15:42;8.35;;;3.60;;
75854;SDS011;64502;59.976;30.316;2022-12-10T02:18:16;7.20;;;3.28;;
75854;SDS011;64502;59.976;30.316;2022-12-10T02:20:48;11.27;;;3.88;;
75854;SDS011;64502;59.976;30.316;2022-12-10T02:25:47;11.25;;;4.30;;
75854;SDS011;64502;59.976;30.316;2022-12-10T02:28:17;7.60;;;3.15;;
75854;SDS011;64502;59.976;30.316;2022-12-10T02:30:56;8.25;;;3.22;;
75854;SDS011;64502;59.976;30.316;2022-12-10T02:33:24;8.20;;;3.95;;
75854;SDS011;64502;59.976;30.316;2022-12-10T02:35:53;10.40;;;4.15;;
75854;SDS011;64502;59.976;30.316;2022-12-10T02:38:24;12.13;;;3.85;;
75854;SDS011;64502;59.976;30.316;2022-12-10T02:40:58;10.45;;;4.30;;
75854;SDS011;64502;59.976;30.316;2022-12-10T02:43:27;13.05;;;4.50;;
75854;SDS011;64502;59.976;30.316;2022-12-10T02:45:55;10.20;;;3.72;;
75854;SDS011;64502;59.976;30.316;2022-12-10T02:48:22;9.10;;;4.03;;
75854;SDS011;64502;59.976;30.316;2022-12-10T02:50:49;13.20;;;4.43;;
75854;SDS011;64502;59.976;30.316;2022-12-10T02:53:15;7.65;;;3.85;;
75854;SDS011;64502;59.976;30.316;2022-12-10T02:58:36;10.77;;;4.53;;
75854;SDS011;64502;59.976;30.316;2022-12-10T03:01:52;8.85;;;4.60;;
75854;SDS011;64502;59.976;30.316;2022-12-10T03:04:26;7.90;;;3.30;;
75854;SDS011;64502;59.976;30.316;2022-12-10T03:07:11;12.07;;;4.07;;
75854;SDS011;64502;59.976;30.316;2022-12-10T03:10:24;9.27;;;3.70;;
75854;SDS011;64502;59.976;30.316;2022-12-10T03:12:46;9.70;;;4.80;;
75854;SDS011;64502;59.976;30.316;2022-12-10T03:15:15;10.93;;;4.50;;
75854;SDS011;64502;59.976;30.316;2022-12-10T03:17:43;9.75;;;3.92;;
75854;SDS011;64502;59.976;30.316;2022-12-10T03:20:12;9.90;;;3.95;;
75854;SDS011;64502;59.976;30.316;2022-12-10T03:22:40;8.32;;;3.58;;
75854;SDS011;64502;59.976;30.316;2022-12-10T03:25:09;11.63;;;4.18;;
75854;SDS011;64502;59.976;30.316;2022-12-10T03:27:38;11.40;;;4.22;;
75854;SDS011;64502;59.976;30.316;2022-12-10T03:30:05;9.05;;;4.20;;
75854;SDS011;64502;59.976;30.316;2022-12-10T03:32:31;8.93;;;4.05;;
75854;SDS011;64502;59.976;30.316;2022-12-10T03:34:57;10.15;;;4.25;;
75854;SDS011;64502;59.976;30.316;2022-12-10T03:37:24;9.15;;;4.10;;
75854;SDS011;64502;59.976;30.316;2022-12-10T03:39:51;9.07;;;4.78;;
75854;SDS011;64502;59.976;30.316;2022-12-10T03:42:17;13.43;;;4.75;;
75854;SDS011;64502;59.976;30.316;2022-12-10T03:44:43;11.52;;;5.03;;
75854;SDS011;64502;59.976;30.316;2022-12-10T03:47:10;17.60;;;5.30;;
75854;SDS011;64502;59.976;30.316;2022-12-10T03:49:39;12.23;;;5.03;;
75854;SDS011;64502;59.976;30.316;2022-12-10T03:52:05;10.55;;;4.60;;
75854;SDS011;64502;59.976;30.316;2022-12-10T03:54:31;13.07;;;5.47;;
75854;SDS011;64502;59.976;30.316;2022-12-10T03:56:56;11.80;;;5.07;;
75854;SDS011;64502;59.976;30.316;2022-12-10T03:59:22;13.18;;;5.68;;
75854;SDS011;64502;59.976;30.316;2022-12-10T04:01:47;13.15;;;5.47;;
75854;SDS011;64502;59.976;30.316;2022-12-10T04:04:13;14.15;;;5.07;;
75854;SDS011;64502;59.976;30.316;2022-12-10T04:06:39;13.40;;;5.80;;
75854;SDS011;64502;59.976;30.316;2022-12-10T04:09:05;12.82;;;5.25;;
75854;SDS011;64502;59.976;30.316;2022-12-10T04:11:30;12.57;;;4.97;;
75854;SDS011;64502;59.976;30.316;2022-12-10T04:13:56;12.93;;;5.15;;
75854;SDS011;64502;59.976;30.316;2022-12-10T04:16:40;13.98;;;5.35;;
75854;SDS011;64502;59.976;30.316;2022-12-10T04:19:06;13.40;;;5.55;;
75854;SDS011;64502;59.976;30.316;2022-12-10T04:21:36;12.95;;;5.93;;
75854;SDS011;64502;59.976;30.316;2022-12-10T04:24:23;14.35;;;6.00;;
75854;SDS011;64502;59.976;30.316;2022-12-10T04:27:10;14.32;;;6.55;;
75854;SDS011;64502;59.976;30.316;2022-12-10T04:29:38;18.85;;;7.05;;
75854;SDS011;64502;59.976;30.316;2022-12-10T04:32:04;11.63;;;5.43;;
75854;SDS011;64502;59.976;30.316;2022-12-10T04:34:30;18.30;;;7.07;;
75854;SDS011;64502;59.976;30.316;2022-12-10T04:36:56;16.15;;;7.35;;
75854;SDS011;64502;59.976;30.316;2022-12-10T04:39:23;14.43;;;5.80;;
75854;SDS011;64502;59.976;30.316;2022-12-10T04:41:49;18.20;;;7.90;;
75854;SDS011;64502;59.976;30.316;2022-12-10T04:44:15;18.13;;;7.05;;
75854;SDS011;64502;59.976;30.316;2022-12-10T04:46:41;19.58;;;8.10;;
75854;SDS011;64502;59.976;30.316;2022-12-10T04:49:07;20.40;;;7.97;;
75854;SDS011;64502;59.976;30.316;2022-12-10T04:51:33;20.45;;;7.85;;
75854;SDS011;64502;59.976;30.316;2022-12-10T04:54:00;15.63;;;6.90;;
75854;SDS011;64502;59.976;30.316;2022-12-10T04:56:25;21.75;;;8.20;;
75854;SDS011;64502;59.976;30.316;2022-12-10T04:58:51;17.70;;;8.48;;
75854;SDS011;64502;59.976;30.316;2022-12-10T05:01:19;18.83;;;7.93;;
75854;SDS011;64502;59.976;30.316;2022-12-10T05:03:44;19.73;;;8.13;;
75854;SDS011;64502;59.976;30.316;2022-12-10T05:06:11;21.40;;;8.60;;
75854;SDS011;64502;59.976;30.316;2022-12-10T05:08:38;21.27;;;8.48;;
75854;SDS011;64502;59.976;30.316;2022-12-10T05:11:05;20.23;;;7.65;;
75854;SDS011;64502;59.976;30.316;2022-12-10T05:13:41;18.38;;;8.20;;
75854;SDS011;64502;59.976;30.316;2022-12-10T05:16:08;16.27;;;6.97;;
75854;SDS011;64502;59.976;30.316;2022-12-10T05:18:35;21.35;;;7.63;;
75854;SDS011;64502;59.976;30.316;2022-12-10T05:21:02;18.52;;;6.85;;
75854;SDS011;64502;59.976;30.316;2022-12-10T05:23:30;20.27;;;7.45;;
75854;SDS011;64502;59.976;30.316;2022-12-10T05:28:25;18.88;;;7.65;;
75854;SDS011;64502;59.976;30.316;2022-12-10T05:30:51;19.00;;;7.60;;
75854;SDS011;64502;59.976;30.316;2022-12-10T05:33:17;20.77;;;7.72;;
75854;SDS011;64502;59.976;30.316;2022-12-10T05:35:42;19.77;;;7.78;;
75854;SDS011;64502;59.976;30.316;2022-12-10T05:38:08;16.23;;;7.28;;
75854;SDS011;64502;59.976;30.316;2022-12-10T05:40:36;21.13;;;8.00;;
75854;SDS011;64502;59.976;30.316;2022-12-10T05:43:02;19.70;;;8.20;;
75854;SDS011;64502;59.976;30.316;2022-12-10T05:45:28;21.38;;;7.38;;
75854;SDS011;64502;59.976;30.316;2022-12-10T05:47:53;19.83;;;7.63;;
75854;SDS011;64502;59.976;30.316;2022-12-10T05:50:19;19.33;;;7.07;;
75854;SDS011;64502;59.976;30.316;2022-12-10T05:52:44;17.80;;;7.80;;
75854;SDS011;64502;59.976;30.316;2022-12-10T05:55:09;18.67;;;7.43;;
75854;SDS011;64502;59.976;30.316;2022-12-10T05:57:36;19.80;;;7.85;;
75854;SDS011;64502;59.976;30.316;2022-12-10T06:00:03;18.92;;;7.90;;
75854;SDS011;64502;59.976;30.316;2022-12-10T06:02:31;18.52;;;6.93;;
75854;SDS011;64502;59.976;30.316;2022-12-10T06:04:58;22.13;;;8.43;;
75854;SDS011;64502;59.976;30.316;2022-12-10T06:07:23;23.33;;;9.70;;
75854;SDS011;64502;59.976;30.316;2022-12-10T06:09:49;24.48;;;8.73;;
75854;SDS011;64502;59.976;30.316;2022-12-10T06:12:15;20.38;;;8.43;;
75854;SDS011;64502;59.976;30.316;2022-12-10T06:14:40;20.63;;;9.07;;
75854;SDS011;64502;59.976;30.316;2022-12-10T06:17:07;22.55;;;9.50;;
75854;SDS011;64502;59.976;30.316;2022-12-10T06:19:33;24.90;;;9.18;;
75854;SDS011;64502;59.976;30.316;2022-12-10T06:21:59;19.27;;;7.70;;
75854;SDS011;64502;59.976;30.316;2022-12-10T06:24:24;25.40;;;9.32;;
75854;SDS011;64502;59.976;30.316;2022-12-10T06:26:50;22.75;;;9.02;;
75854;SDS011;64502;59.976;30.316;2022-12-10T06:29:16;22.80;;;9.00;;
75854;SDS011;64502;59.976;30.316;2022-12-10T06:31:41;25.15;;;10.57;;
75854;SDS011;64502;59.976;30.316;2022-12-10T06:34:07;24.58;;;9.90;;
75854;SDS011;64502;59.976;30.316;2022-12-10T06:36:33;22.85;;;8.57;;
75854;SDS011;64502;59.976;30.316;2022-12-10T06:38:58;25.33;;;10.20;;
75854;SDS011;64502;59.976;30.316;2022-12-10T06:41:24;27.55;;;9.50;;
75854;SDS011;64502;59.976;30.316;2022-12-10T06:43:49;19.50;;;7.13;;
75854;SDS011;64502;59.976;30.316;2022-12-10T06:46:15;29.85;;;9.93;;
75854;SDS011;64502;59.976;30.316;2022-12-10T06:48:43;26.38;;;9.77;;
75854;SDS011;64502;59.976;30.316;2022-12-10T06:51:09;29.98;;;10.73;;
75854;SDS011;64502;59.976;30.316;2022-12-10T06:53:37;26.15;;;10.35;;
75854;SDS011;64502;59.976;30.316;2022-12-10T06:56:05;31.40;;;10.35;;
75854;SDS011;64502;59.976;30.316;2022-12-10T06:58:32;33.47;;;13.02;;
75854;SDS011;64502;59.976;30.316;2022-12-10T07:01:06;30.17;;;12.27;;
75854;SDS011;64502;59.976;30.316;2022-12-10T07:03:33;32.85;;;13.43;;
75854;SDS011;64502;59.976;30.316;2022-12-10T07:05:59;30.17;;;12.30;;
75854;SDS011;64502;59.976;30.316;2022-12-10T07:08:26;31.42;;;11.93;;
75854;SDS011;64502;59.976;30.316;2022-12-10T07:10:51;32.90;;;12.95;;
75854;SDS011;64502;59.976;30.316;2022-12-10T07:13:17;30.27;;;12.40;;
75854;SDS011;64502;59.976;30.316;2022-12-10T07:15:42;26.38;;;11.05;;
75854;SDS011;64502;59.976;30.316;2022-12-10T07:18:08;31.58;;;12.00;;
75854;SDS011;64502;59.976;30.316;2022-12-10T07:20:33;29.42;;;11.07;;
75854;SDS011;64502;59.976;30.316;2022-12-10T07:22:59;28.40;;;11.52;;
75854;SDS011;64502;59.976;30.316;2022-12-10T07:25:24;26.05;;;10.60;;
75854;SDS011;64502;59.976;30.316;2022-12-10T07:27:50;28.30;;;11.40;;
75854;SDS011;64502;59.976;30.316;2022-12-10T07:30:15;25.35;;;10.20;;
75854;SDS011;64502;59.976;30.316;2022-12-10T07:32:41;24.30;;;9.13;;
75854;SDS011;64502;59.976;30.316;2022-12-10T07:35:06;25.50;;;9.75;;
75854;SDS011;64502;59.976;30.316;2022-12-10T07:37:32;24.95;;;10.23;;
75854;SDS011;64502;59.976;30.316;2022-12-10T07:39:58;23.80;;;9.43;;
75854;SDS011;64502;59.976;30.316;2022-12-10T07:42:23;22.50;;;9.02;;
75854;SDS011;64502;59.976;30.316;2022-12-10T07:44:49;21.50;;;10.02;;
75854;SDS011;64502;59.976;30.316;2022-12-10T07:47:14;24.73;;;10.05;;
75854;SDS011;64502;59.976;30.316;2022-12-10T07:49:41;22.75;;;10.52;;
75854;SDS011;64502;59.976;30.316;2022-12-10T07:52:07;21.85;;;9.73;;
75854;SDS011;64502;59.976;30.316;2022-12-10T07:54:33;24.33;;;9.27;;
75854;SDS011;64502;59.976;30.316;2022-12-10T07:56:59;25.60;;;9.07;;
75854;SDS011;64502;59.976;30.316;2022-12-10T07:59:25;20.63;;;8.48;;
75854;SDS011;64502;59.976;30.316;2022-12-10T08:01:51;25.50;;;8.82;;
75854;SDS011;64502;59.976;30.316;2022-12-10T08:04:16;21.77;;;8.20;;
75854;SDS011;64502;59.976;30.316;2022-12-10T08:06:42;22.55;;;9.55;;
75854;SDS011;64502;59.976;30.316;2022-12-10T08:09:09;21.65;;;8.57;;
75854;SDS011;64502;59.976;30.316;2022-12-10T08:11:35;23.05;;;9.20;;
75854;SDS011;64502;59.976;30.316;2022-12-10T08:14:00;21.67;;;8.77;;
75854;SDS011;64502;59.976;30.316;2022-12-10T08:16:27;22.23;;;8.98;;
75854;SDS011;64502;59.976;30.316;2022-12-10T08:18:55;22.58;;;8.23;;
75854;SDS011;64502;59.976;30.316;2022-12-10T08:21:22;19.75;;;7.75;;
75854;SDS011;64502;59.976;30.316;2022-12-10T08:23:49;20.13;;;8.95;;
75854;SDS011;64502;59.976;30.316;2022-12-10T08:26:16;19.38;;;7.75;;
75854;SDS011;64502;59.976;30.316;2022-12-10T08:28:44;21.75;;;8.45;;
75854;SDS011;64502;59.976;30.316;2022-12-10T08:31:11;18.20;;;6.65;;
75854;SDS011;64502;59.976;30.316;2022-12-10T08:33:38;20.30;;;7.95;;
75854;SDS011;64502;59.976;30.316;2022-12-10T08:36:05;23.10;;;10.13;;
75854;SDS011;64502;59.976;30.316;2022-12-10T08:38:32;27.27;;;9.75;;
75854;SDS011;64502;59.976;30.316;2022-12-10T08:41:04;21.40;;;9.23;;
75854;SDS011;64502;59.976;30.316;2022-12-10T08:43:31;23.58;;;8.90;;
75854;SDS011;64502;59.976;30.316;2022-12-10T08:45:57;25.35;;;9.75;;
75854;SDS011;64502;59.976;30.316;2022-12-10T08:48:23;22.08;;;9.23;;
75854;SDS011;64502;59.976;30.316;2022-12-10T08:50:49;28.70;;;9.88;;
75854;SDS011;64502;59.976;30.316;2022-12-10T08:53:14;22.08;;;10.27;;
75854;SDS011;64502;59.976;30.316;2022-12-10T08:55:40;23.63;;;10.35;;
75854;SDS011;64502;59.976;30.316;2022-12-10T08:58:05;25.30;;;9.40;;
75854;SDS011;64502;59.976;30.316;2022-12-10T09:00:33;29.20;;;8.75;;
75854;SDS011;64502;59.976;30.316;2022-12-10T09:03:00;20.70;;;8.93;;
75854;SDS011;64502;59.976;30.316;2022-12-10T09:05:25;26.70;;;10.45;;
75854;SDS011;64502;59.976;30.316;2022-12-10T09:07:50;22.80;;;9.57;;
75854;SDS011;64502;59.976;30.316;2022-12-10T09:10:16;20.20;;;9.32;;
75854;SDS011;64502;59.976;30.316;2022-12-10T09:12:42;23.50;;;9.93;;
75854;SDS011;64502;59.976;30.316;2022-12-10T09:15:08;20.70;;;8.77;;
75854;SDS011;64502;59.976;30.316;2022-12-10T09:17:35;21.90;;;9.40;;
75854;SDS011;64502;59.976;30.316;2022-12-10T09:20:02;18.50;;;7.57;;
75854;SDS011;64502;59.976;30.316;2022-12-10T09:22:29;21.58;;;8.50;;
75854;SDS011;64502;59.976;30.316;2022-12-10T09:24:54;20.33;;;7.88;;
75854;SDS011;64502;59.976;30.316;2022-12-10T09:27:20;14.98;;;7.00;;
75854;SDS011;64502;59.976;30.316;2022-12-10T09:29:45;22.58;;;9.00;;
75854;SDS011;64502;59.976;30.316;2022-12-10T09:32:11;23.23;;;8.35;;
75854;SDS011;64502;59.976;30.316;2022-12-10T09:34:36;18.67;;;8.68;;
75854;SDS011;64502;59.976;30.316;2022-12-10T09:37:01;19.23;;;8.35;;
75854;SDS011;64502;59.976;30.316;2022-12-10T09:39:27;20.17;;;8.25;;
75854;SDS011;64502;59.976;30.316;2022-12-10T09:44:31;15.68;;;6.93;;
75854;SDS011;64502;59.976;30.316;2022-12-10T09:47:05;13.20;;;6.10;;
75854;SDS011;64502;59.976;30.316;2022-12-10T09:52:14;14.43;;;5.53;;
75854;SDS011;64502;59.976;30.316;2022-12-10T09:54:44;13.02;;;6.05;;
75854;SDS011;64502;59.976;30.316;2022-12-10T09:57:19;16.38;;;6.18;;
75854;SDS011;64502;59.976;30.316;2022-12-10T09:59:50;11.93;;;5.80;;
75854;SDS011;64502;59.976;30.316;2022-12-10T10:02:21;13.18;;;6.60;;
75854;SDS011;64502;59.976;30.316;2022-12-10T10:04:51;11.65;;;5.05;;
75854;SDS011;64502;59.976;30.316;2022-12-10T10:07:20;19.67;;;5.93;;
75854;SDS011;64502;59.976;30.316;2022-12-10T10:09:48;13.10;;;6.07;;
75854;SDS011;64502;59.976;30.316;2022-12-10T10:12:15;13.88;;;6.97;;
75854;SDS011;64502;59.976;30.316;2022-12-10T10:14:44;15.15;;;7.25;;
75854;SDS011;64502;59.976;30.316;2022-12-10T10:17:18;18.98;;;7.75;;
75854;SDS011;64502;59.976;30.316;2022-12-10T10:19:47;18.10;;;7.95;;
75854;SDS011;64502;59.976;30.316;2022-12-10T10:22:14;18.80;;;6.97;;
75854;SDS011;64502;59.976;30.316;2022-12-10T10:24:43;15.68;;;7.43;;
75854;SDS011;64502;59.976;30.316;2022-12-10T10:29:38;17.67;;;8.35;;
75854;SDS011;64502;59.976;30.316;2022-12-10T10:35:02;18.13;;;7.80;;
75854;SDS011;64502;59.976;30.316;2022-12-10T10:37:30;19.88;;;8.32;;
75854;SDS011;64502;59.976;30.316;2022-12-10T10:40:05;18.10;;;8.15;;
75854;SDS011;64502;59.976;30.316;2022-12-10T10:42:41;18.48;;;8.77;;
75854;SDS011;64502;59.976;30.316;2022-12-10T10:48:16;19.88;;;8.70;;
75854;SDS011;64502;59.976;30.316;2022-12-10T10:50:48;21.15;;;9.32;;
75854;SDS011;64502;59.976;30.316;2022-12-10T10:53:26;25.02;;;9.95;;
75854;SDS011;64502;59.976;30.316;2022-12-10T10:55:54;18.02;;;8.45;;
75854;SDS011;64502;59.976;30.316;2022-12-10T10:58:29;22.65;;;9.15;;
75854;SDS011;64502;59.976;30.316;2022-12-10T11:00:57;22.88;;;9.13;;
75854;SDS011;64502;59.976;30.316;2022-12-10T11:03:25;22.73;;;10.15;;
75854;SDS011;64502;59.976;30.316;2022-12-10T11:05:53;24.20;;;11.25;;
75854;SDS011;64502;59.976;30.316;2022-12-10T11:08:21;24.75;;;9.95;;
75854;SDS011;64502;59.976;30.316;2022-12-10T11:10:52;23.27;;;8.55;;
75854;SDS011;64502;59.976;30.316;2022-12-10T11:13:27;24.42;;;9.80;;
75854;SDS011;64502;59.976;30.316;2022-12-10T11:18:34;18.33;;;8.18;;
75854;SDS011;64502;59.976;30.316;2022-12-10T11:23:38;20.95;;;8.35;;
75854;SDS011;64502;59.976;30.316;2022-12-10T11:37:03;21.88;;;10.23;;
75854;SDS011;64502;59.976;30.316;2022-12-10T11:42:30;15.40;;;6.97;;
75854;SDS011;64502;59.976;30.316;2022-12-10T11:50:43;13.35;;;6.45;;
75854;SDS011;64502;59.976;30.316;2022-12-10T11:53:19;19.30;;;7.88;;
75854;SDS011;64502;59.976;30.316;2022-12-10T11:59:08;16.80;;;7.50;;
75854;SDS011;64502;59.976;30.316;2022-12-10T12:10:00;14.55;;;6.43;;
75854;SDS011;64502;59.976;30.316;2022-12-10T12:15:29;15.68;;;7.20;;
75854;SDS011;64502;59.976;30.316;2022-12-10T12:18:08;15.50;;;6.88;;
75854;SDS011;64502;59.976;30.316;2022-12-10T12:20:46;12.43;;;6.13;;
75854;SDS011;64502;59.976;30.316;2022-12-10T12:23:32;14.75;;;6.18;;
75854;SDS011;64502;59.976;30.316;2022-12-10T12:26:29;13.10;;;6.68;;
75854;SDS011;64502;59.976;30.316;2022-12-10T12:28:56;13.02;;;6.05;;
75854;SDS011;64502;59.976;30.316;2022-12-10T12:34:54;18.52;;;6.07;;
75854;SDS011;64502;59.976;30.316;2022-12-10T12:37:28;14.13;;;6.18;;
75854;SDS011;64502;59.976;30.316;2022-12-10T12:42:45;20.17;;;7.25;;
75854;SDS011;64502;59.976;30.316;2022-12-10T12:45:20;16.42;;;6.70;;
75854;SDS011;64502;59.976;30.316;2022-12-10T12:50:29;15.65;;;7.15;;
75854;SDS011;64502;59.976;30.316;2022-12-10T12:53:14;12.45;;;6.40;;
75854;SDS011;64502;59.976;30.316;2022-12-10T12:58:26;14.15;;;6.97;;
75854;SDS011;64502;59.976;30.316;2022-12-10T13:00:57;13.77;;;6.53;;
75854;SDS011;64502;59.976;30.316;2022-12-10T13:03:41;13.23;;;6.20;;
75854;SDS011;64502;59.976;30.316;2022-12-10T13:06:12;11.98;;;5.82;;
75854;SDS011;64502;59.976;30.316;2022-12-10T13:08:47;11.65;;;5.93;;
75854;SDS011;64502;59.976;30.316;2022-12-10T13:11:18;12.45;;;5.38;;
75854;SDS011;64502;59.976;30.316;2022-12-10T13:14:04;11.05;;;5.65;;
75854;SDS011;64502;59.976;30.316;2022-12-10T13:19:27;11.35;;;5.80;;
75854;SDS011;64502;59.976;30.316;2022-12-10T13:24:42;13.75;;;5.85;;
75854;SDS011;64502;59.976;30.316;2022-12-10T13:29:47;10.55;;;4.88;;
75854;SDS011;64502;59.976;30.316;2022-12-10T13:32:20;11.57;;;5.40;;
75854;SDS011;64502;59.976;30.316;2022-12-10T13:42:39;10.63;;;5.03;;
75854;SDS011;64502;59.976;30.316;2022-12-10T13:45:36;10.13;;;5.68;;
75854;SDS011;64502;59.976;30.316;2022-12-10T13:50:38;13.13;;;5.35;;
75854;SDS011;64502;59.976;30.316;2022-12-10T13:55:46;13.13;;;5.30;;
75854;SDS011;64502;59.976;30.316;2022-12-10T14:07:20;14.50;;;5.97;;
75854;SDS011;64502;59.976;30.316;2022-12-10T14:09:51;10.93;;;5.93;;
75854;SDS011;64502;59.976;30.316;2022-12-10T14:15:04;10.52;;;5.00;;
75854;SDS011;64502;59.976;30.316;2022-12-10T14:17:37;11.00;;;5.15;;
75854;SDS011;64502;59.976;30.316;2022-12-10T14:20:06;14.85;;;6.28;;
75854;SDS011;64502;59.976;30.316;2022-12-10T14:22:34;10.50;;;5.43;;
75854;SDS011;64502;59.976;30.316;2022-12-10T14:25:05;12.43;;;5.15;;
75854;SDS011;64502;59.976;30.316;2022-12-10T14:27:37;13.10;;;5.75;;
75854;SDS011;64502;59.976;30.316;2022-12-10T14:30:24;12.48;;;5.97;;
75854;SDS011;64502;59.976;30.316;2022-12-10T14:32:53;12.52;;;5.65;;
75854;SDS011;64502;59.976;30.316;2022-12-10T14:35:21;15.57;;;6.03;;
75854;SDS011;64502;59.976;30.316;2022-12-10T14:37:49;10.95;;;5.53;;
75854;SDS011;64502;59.976;30.316;2022-12-10T14:40:23;12.52;;;5.68;;
75854;SDS011;64502;59.976;30.316;2022-12-10T14:42:52;9.82;;;5.00;;
75854;SDS011;64502;59.976;30.316;2022-12-10T14:45:26;11.93;;;5.60;;
75854;SDS011;64502;59.976;30.316;2022-12-10T14:48:00;11.43;;;5.25;;
75854;SDS011;64502;59.976;30.316;2022-12-10T14:50:25;10.85;;;4.80;;
75854;SDS011;64502;59.976;30.316;2022-12-10T14:52:53;10.65;;;4.82;;
75854;SDS011;64502;59.976;30.316;2022-12-10T14:55:19;12.18;;;5.65;;
75854;SDS011;64502;59.976;30.316;2022-12-10T14:58:00;10.80;;;4.85;;
75854;SDS011;64502;59.976;30.316;2022-12-10T15:00:27;13.63;;;6.15;;
75854;SDS011;64502;59.976;30.316;2022-12-10T15:02:54;10.27;;;5.38;;
75854;SDS011;64502;59.976;30.316;2022-12-10T15:05:32;12.98;;;5.53;;
75854;SDS011;64502;59.976;30.316;2022-12-10T15:08:32;11.70;;;5.40;;
75854;SDS011;64502;59.976;30.316;2022-12-10T15:10:52;15.45;;;5.93;;
75854;SDS011;64502;59.976;30.316;2022-12-10T15:15:55;13.85;;;6.10;;
75854;SDS011;64502;59.976;30.316;2022-12-10T15:18:26;11.90;;;6.07;;
75854;SDS011;64502;59.976;30.316;2022-12-10T15:21:12;10.80;;;5.60;;
75854;SDS011;64502;59.976;30.316;2022-12-10T15:23:46;10.07;;;4.30;;
75854;SDS011;64502;59.976;30.316;2022-12-10T15:28:44;7.72;;;4.45;;
75854;SDS011;64502;59.976;30.316;2022-12-10T15:34:02;9.00;;;4.55;;
75854;SDS011;64502;59.976;30.316;2022-12-10T15:39:05;8.45;;;3.55;;
75854;SDS011;64502;59.976;30.316;2022-12-10T15:41:50;8.60;;;4.00;;
75854;SDS011;64502;59.976;30.316;2022-12-10T15:46:46;7.45;;;3.58;;
75854;SDS011;64502;59.976;30.316;2022-12-10T15:49:13;7.60;;;3.63;;
75854;SDS011;64502;59.976;30.316;2022-12-10T15:51:39;5.97;;;3.28;;
75854;SDS011;64502;59.976;30.316;2022-12-10T15:54:27;5.53;;;3.00;;
75854;SDS011;64502;59.976;30.316;2022-12-10T15:56:58;8.38;;;3.75;;
75854;SDS011;64502;59.976;30.316;2022-12-10T15:59:25;4.80;;;2.55;;
75854;SDS011;64502;59.976;30.316;2022-12-10T16:01:50;6.05;;;2.75;;
75854;SDS011;64502;59.976;30.316;2022-12-10T16:04:16;12.27;;;5.18;;
75854;SDS011;64502;59.976;30.316;2022-12-10T16:06:41;10.93;;;5.50;;
75854;SDS011;64502;59.976;30.316;2022-12-10T16:09:10;6.47;;;3.13;;
75854;SDS011;64502;59.976;30.316;2022-12-10T16:11:36;5.55;;;2.65;;
75854;SDS011;64502;59.976;30.316;2022-12-10T16:14:01;4.45;;;2.05;;
75854;SDS011;64502;59.976;30.316;2022-12-10T16:16:28;5.90;;;2.80;;
75854;SDS011;64502;59.976;30.316;2022-12-10T16:18:54;4.60;;;2.35;;
75854;SDS011;64502;59.976;30.316;2022-12-10T16:21:20;6.38;;;2.70;;
75854;SDS011;64502;59.976;30.316;2022-12-10T16:23:45;4.32;;;2.03;;
75854;SDS011;64502;59.976;30.316;2022-12-10T16:26:17;4.85;;;2.10;;
75854;SDS011;64502;59.976;30.316;2022-12-10T16:28:45;5.95;;;2.45;;
75854;SDS011;64502;59.976;30.316;2022-12-10T16:31:12;5.75;;;2.22;;
75854;SDS011;64502;59.976;30.316;2022-12-10T16:33:41;8.55;;;4.13;;
75854;SDS011;64502;59.976;30.316;2022-12-10T16:36:06;8.57;;;3.65;;
75854;SDS011;64502;59.976;30.316;2022-12-10T16:38:32;7.03;;;2.90;;
75854;SDS011;64502;59.976;30.316;2022-12-10T16:40:58;7.70;;;3.20;;
75854;SDS011;64502;59.976;30.316;2022-12-10T16:43:26;8.23;;;2.70;;